Time;durP1;ratioP1;P1;durP2;ratioP2;P2;SDS_P1;SDS_P2;PMS_P1;PMS_P2;Temp;Humidity;BMP_temperature;BMP_pressure;BME280_temperature;BME280_humidity;BME280_pressure;Samples;Min_cycle;Max_cycle;Signal;HPM_P1;HPM_P2
2022/10/26 00:01:24;;;;;;;4.53;3.20;;;;;;;10.22;87.16;101305.13;5074717;28;20111;-78
2022/10/26 00:03:50;;;;;;;6.18;3.67;;;;;;;10.24;87.32;101308.56;5074394;28;20031;-78
2022/10/26 00:06:20;;;;;;;6.05;3.70;;;;;;;10.25;87.17;101310.25;5075353;28;20064;-78
2022/10/26 00:08:47;;;;;;;5.78;3.60;;;;;;;10.27;87.37;101306.75;5074743;28;20066;-78
2022/10/26 00:11:13;;;;;;;7.78;3.25;;;;;;;10.29;87.33;101304.13;5074936;28;20051;-77
2022/10/26 00:13:39;;;;;;;7.40;3.70;;;;;;;10.31;87.43;101304.94;5074961;28;20036;-78
2022/10/26 00:16:09;;;;;;;5.70;3.53;;;;;;;10.31;87.36;101295.41;5075140;28;20035;-78
2022/10/26 00:18:34;;;;;;;6.15;3.63;;;;;;;10.34;87.33;101297.09;5074547;28;20025;-78
2022/10/26 00:21:04;;;;;;;6.47;3.70;;;;;;;10.35;87.49;101288.41;5075323;28;20400;-78
2022/10/26 00:23:30;;;;;;;6.13;3.60;;;;;;;10.38;87.40;101287.50;5073732;28;20088;-78
2022/10/26 00:25:57;;;;;;;8.18;3.78;;;;;;;10.38;87.58;101282.28;5072246;28;20036;-78
2022/10/26 00:28:23;;;;;;;7.35;3.80;;;;;;;10.38;87.53;101283.19;5072760;28;20024;-78
2022/10/26 00:30:48;;;;;;;6.07;3.47;;;;;;;10.39;87.32;101279.72;5072119;28;20021;-78
2022/10/26 00:33:13;;;;;;;8.13;3.42;;;;;;;10.41;87.42;101279.66;5074629;28;20029;-78
2022/10/26 00:35:38;;;;;;;6.70;3.50;;;;;;;10.40;87.35;101278.81;5074965;28;20510;-78
2022/10/26 00:38:04;;;;;;;6.80;3.35;;;;;;;10.42;87.42;101278.78;5073753;28;20028;-78
2022/10/26 00:40:29;;;;;;;6.97;3.60;;;;;;;10.42;87.39;101274.44;5070081;28;20186;-78
2022/10/26 00:42:55;;;;;;;7.47;3.42;;;;;;;10.43;87.36;101277.91;5074151;28;20074;-78
2022/10/26 00:45:26;;;;;;;6.65;3.42;;;;;;;10.44;87.74;101277.88;5074610;28;20066;-78
2022/10/26 00:47:54;;;;;;;6.78;3.60;;;;;;;10.46;87.57;101268.28;5074512;28;20029;-78
2022/10/26 00:50:27;;;;;;;6.97;3.30;;;;;;;10.48;87.72;101258.72;5073580;28;20082;-78
2022/10/26 00:52:53;;;;;;;5.13;3.03;;;;;;;10.50;87.91;101245.72;5073991;28;20391;-78
2022/10/26 00:55:23;;;;;;;7.15;3.30;;;;;;;10.52;87.77;101241.31;5074365;28;20028;-78
2022/10/26 00:57:51;;;;;;;5.00;3.00;;;;;;;10.53;87.75;101242.19;5074244;28;20108;-78
2022/10/26 01:00:16;;;;;;;4.93;2.88;;;;;;;10.56;87.99;101247.31;5073327;28;20036;-78
2022/10/26 01:02:44;;;;;;;7.07;2.95;;;;;;;10.58;88.38;101250.75;5072605;28;20040;-78
2022/10/26 01:05:10;;;;;;;4.40;2.70;;;;;;;10.60;88.23;101248.97;5074301;28;20024;-78
2022/10/26 01:07:35;;;;;;;8.98;2.78;;;;;;;10.62;88.12;101266.28;5073643;28;20047;-78
2022/10/26 01:10:01;;;;;;;5.22;2.90;;;;;;;10.65;88.44;101261.91;5072588;28;20467;-78
2022/10/26 01:12:28;;;;;;;5.70;2.67;;;;;;;10.67;88.30;101268.78;5073285;28;20035;-78
2022/10/26 01:14:53;;;;;;;4.72;2.47;;;;;;;10.68;88.59;101267.03;5073474;28;20164;-78
2022/10/26 01:17:36;;;;;;;9.75;3.33;;;;;;;10.71;88.25;101267.84;5073920;28;20055;-78
2022/10/26 01:20:01;;;;;;;5.18;2.60;;;;;;;10.73;88.43;101255.66;5072082;28;20028;-78
2022/10/26 01:22:39;;;;;;;4.70;2.75;;;;;;;10.74;88.29;101252.19;5073975;28;20499;-77
2022/10/26 01:25:23;;;;;;;6.65;3.20;;;;;;;10.76;88.10;101246.94;5076996;28;20028;-78
2022/10/26 01:27:51;;;;;;;6.57;3.25;;;;;;;10.76;88.36;101245.16;5094198;28;20077;-78
2022/10/26 01:30:31;;;;;;;6.35;3.10;;;;;;;10.78;88.17;101242.56;5076021;28;20028;-78
2022/10/26 01:32:59;;;;;;;5.53;3.13;;;;;;;10.76;88.32;101234.75;5072776;28;20039;-78
2022/10/26 01:36:01;;;;;;;6.10;3.40;;;;;;;10.77;88.20;101236.47;5070839;28;20043;-78
2022/10/26 01:38:48;;;;;;;6.35;3.72;;;;;;;10.76;88.42;101234.75;5067880;28;20082;-78
2022/10/26 01:41:23;;;;;;;8.73;3.55;;;;;;;10.78;88.37;101238.19;5065640;28;20036;-78
2022/10/26 01:43:54;;;;;;;5.18;3.70;;;;;;;10.78;88.24;101235.59;5071521;28;20059;-78
2022/10/26 01:46:21;;;;;;;6.88;4.05;;;;;;;10.80;88.22;101229.50;5069886;28;20032;-78
2022/10/26 01:48:50;;;;;;;7.10;3.60;;;;;;;10.78;88.34;101227.78;5072288;28;20471;-78
2022/10/26 01:51:17;;;;;;;6.85;3.80;;;;;;;10.78;88.30;101219.97;5073552;28;20380;-78
2022/10/26 01:53:46;;;;;;;8.23;4.38;;;;;;;10.78;88.35;101219.13;5071749;28;20024;-78
2022/10/26 01:56:18;;;;;;;7.30;4.00;;;;;;;10.78;88.35;101217.38;5053304;28;20025;-78
2022/10/26 01:58:57;;;;;;;7.30;4.05;;;;;;;10.79;88.37;101213.03;5068014;28;20071;-78
2022/10/26 02:01:56;;;;;;;7.05;4.15;;;;;;;10.80;88.10;101213.88;5072026;28;20021;-78
2022/10/26 02:04:45;;;;;;;8.00;4.47;;;;;;;10.81;88.00;101207.78;5072853;28;20097;-77
2022/10/26 02:07:26;;;;;;;8.85;4.50;;;;;;;10.81;88.04;101206.06;5073296;28;20077;-78
2022/10/26 02:10:12;;;;;;;6.47;4.53;;;;;;;10.81;88.19;101202.59;5072216;28;20063;-78
2022/10/26 02:12:54;;;;;;;8.77;4.38;;;;;;;10.81;88.15;101202.59;5073196;28;20422;-78
2022/10/26 02:15:21;;;;;;;;;;;;;;;10.84;87.34;101207.72;5073149;28;20387;-78
2022/10/26 02:18:04;;;;;;;8.30;4.45;;;;;;;10.81;87.79;101205.19;5073583;28;19914;-78
2022/10/26 02:20:34;;;;;;;10.13;4.25;;;;;;;10.76;87.79;101203.53;5072200;28;20020;-78
2022/10/26 02:23:05;;;;;;;7.45;4.38;;;;;;;10.77;88.01;101202.63;5072966;28;20021;-78
2022/10/26 02:25:35;;;;;;;9.60;4.38;;;;;;;10.75;87.96;101199.25;5072525;28;20084;-78
2022/10/26 02:28:06;;;;;;;7.40;4.40;;;;;;;10.75;87.97;101195.75;5072766;28;20052;-78
2022/10/26 02:30:34;;;;;;;7.22;4.28;;;;;;;10.74;87.86;101204.47;5071781;28;20057;-78
2022/10/26 02:33:00;;;;;;;7.45;4.20;;;;;;;10.71;88.02;101197.59;5073387;28;20034;-78
2022/10/26 02:35:30;;;;;;;6.65;3.95;;;;;;;10.70;88.26;101193.25;5071950;28;20029;-78
2022/10/26 02:37:59;;;;;;;6.68;3.85;;;;;;;10.70;88.21;101193.25;5072595;28;20036;-78
2022/10/26 02:40:27;;;;;;;6.43;4.05;;;;;;;10.70;88.29;101188.06;5071000;28;20479;-78
2022/10/26 02:42:55;;;;;;;6.78;3.78;;;;;;;10.71;88.16;101191.50;5071138;28;20028;-78
2022/10/26 02:45:29;;;;;;;8.02;3.80;;;;;;;10.70;88.14;101190.66;5069416;28;20344;-78
2022/10/26 02:47:55;;;;;;;6.30;3.33;;;;;;;10.69;88.16;101186.34;5071028;28;20032;-78
2022/10/26 02:50:28;;;;;;;6.05;3.55;;;;;;;10.70;87.96;101181.97;5069294;28;20068;-78
2022/10/26 02:53:08;;;;;;;6.40;3.47;;;;;;;10.69;88.21;101186.34;5073178;28;20373;-78
2022/10/26 02:55:39;;;;;;;5.80;3.33;;;;;;;10.68;88.26;101179.44;5076666;28;20108;-78
2022/10/26 02:58:12;;;;;;;6.20;3.20;;;;;;;10.69;88.31;101173.34;5075051;28;20025;-78
2022/10/26 03:00:38;;;;;;;4.50;2.95;;;;;;;10.68;88.22;101171.63;5076140;28;20029;-78
2022/10/26 03:03:03;;;;;;;4.88;3.25;;;;;;;10.67;88.44;101175.09;5076265;28;20376;-78
2022/10/26 03:05:31;;;;;;;6.90;2.95;;;;;;;10.69;88.27;101168.13;5075697;28;20032;-78
2022/10/26 03:07:58;;;;;;;4.20;2.80;;;;;;;10.67;88.31;101172.50;5076842;28;20025;-78
2022/10/26 03:10:23;;;;;;;5.30;3.10;;;;;;;10.67;88.45;101175.09;5076423;28;20123;-78
2022/10/26 03:12:48;;;;;;;6.28;3.13;;;;;;;10.67;88.47;101164.69;5075493;28;20447;-78
2022/10/26 03:15:14;;;;;;;7.18;3.00;;;;;;;10.67;88.52;101162.09;5075128;28;20028;-78
2022/10/26 03:17:40;;;;;;;6.88;2.92;;;;;;;10.68;88.75;101162.94;5075266;28;20095;-78
2022/10/26 03:20:06;;;;;;;6.43;3.17;;;;;;;10.67;88.39;101162.09;5074956;28;20100;-78
2022/10/26 03:22:31;;;;;;;4.88;3.05;;;;;;;10.67;88.61;101163.84;5073398;28;20024;-78
2022/10/26 03:24:56;;;;;;;6.70;2.95;;;;;;;10.67;88.43;101158.66;5073553;28;20024;-78
2022/10/26 03:27:22;;;;;;;7.78;3.30;;;;;;;10.67;88.82;101159.50;5073732;28;20020;-78
2022/10/26 03:29:47;;;;;;;4.85;2.95;;;;;;;10.66;88.52;101162.97;5074234;28;20031;-78
2022/10/26 03:32:12;;;;;;;5.85;3.00;;;;;;;10.66;88.74;101165.59;5073270;28;21113;-78
2022/10/26 03:34:37;;;;;;;5.15;2.70;;;;;;;10.68;88.72;101169.03;5073494;28;20021;-78
2022/10/26 03:37:03;;;;;;;5.57;2.90;;;;;;;10.68;88.59;101168.16;5074324;28;20020;-78
2022/10/26 03:39:28;;;;;;;7.90;2.92;;;;;;;10.69;88.57;101175.06;5073063;28;20081;-78
2022/10/26 03:41:54;;;;;;;5.63;3.22;;;;;;;10.68;88.87;101171.63;5073970;28;20031;-78
2022/10/26 03:44:20;;;;;;;5.47;3.25;;;;;;;10.71;88.74;101163.75;5072383;28;20036;-78
2022/10/26 03:46:45;;;;;;;6.93;2.83;;;;;;;10.71;88.76;101161.16;5072722;28;20384;-78
2022/10/26 03:49:10;;;;;;;6.22;2.90;;;;;;;10.71;88.84;101158.56;5073798;28;20471;-78
2022/10/26 03:51:36;;;;;;;6.18;2.90;;;;;;;10.71;88.82;101157.69;5069732;28;20090;-78
2022/10/26 03:54:01;;;;;;;5.53;2.90;;;;;;;10.70;88.76;101149.03;5074021;28;20034;-78
2022/10/26 03:56:26;;;;;;;6.68;3.10;;;;;;;10.70;88.80;101156.84;5072815;28;20074;-78
2022/10/26 03:58:51;;;;;;;6.93;2.90;;;;;;;10.69;89.21;101157.72;5074485;28;20028;-78
2022/10/26 04:01:18;;;;;;;6.30;2.83;;;;;;;10.70;89.17;101156.84;5071563;28;20745;-78
2022/10/26 04:03:43;;;;;;;5.65;2.92;;;;;;;10.70;89.27;101154.22;5074196;28;20026;-78
2022/10/26 04:06:08;;;;;;;4.55;2.78;;;;;;;10.72;89.31;101159.38;5074027;28;20117;-78
2022/10/26 04:08:34;;;;;;;7.18;2.97;;;;;;;10.70;89.31;101151.63;5073880;28;20041;-78
2022/10/26 04:10:59;;;;;;;6.22;3.33;;;;;;;10.72;89.28;101151.59;5073814;28;20055;-78
2022/10/26 04:13:24;;;;;;;7.78;3.03;;;;;;;10.70;89.66;101154.22;5071352;28;20039;-78
2022/10/26 04:15:49;;;;;;;4.60;2.63;;;;;;;10.71;89.27;101153.34;5072666;28;20032;-78
2022/10/26 04:18:15;;;;;;;5.82;2.90;;;;;;;10.72;89.44;101149.84;5073607;28;20031;-78
2022/10/26 04:20:41;;;;;;;5.57;3.00;;;;;;;10.74;89.38;101155.00;5073111;28;20029;-78
2022/10/26 04:23:10;;;;;;;5.38;2.80;;;;;;;10.74;89.59;101160.22;5073754;28;20111;-78
2022/10/26 04:25:35;;;;;;;4.45;2.97;;;;;;;10.75;89.41;101154.13;5072558;28;20057;-78
2022/10/26 04:28:03;;;;;;;5.47;3.13;;;;;;;10.78;89.50;101156.66;5074293;28;20142;-78
2022/10/26 04:30:29;;;;;;;6.03;3.05;;;;;;;10.78;89.80;101154.91;5072285;28;20050;-78
2022/10/26 04:32:54;;;;;;;6.28;3.22;;;;;;;10.82;89.73;101149.66;5070158;28;20099;-78
2022/10/26 04:35:19;;;;;;;5.60;2.92;;;;;;;10.83;89.87;101147.03;5071840;28;20040;-78
2022/10/26 04:37:45;;;;;;;5.70;3.03;;;;;;;10.84;89.49;101147.88;5071238;28;20348;-78
2022/10/26 04:40:10;;;;;;;5.90;3.10;;;;;;;10.86;89.94;101146.09;5065966;28;20032;-78
2022/10/26 04:42:43;;;;;;;5.53;2.83;;;;;;;10.90;89.59;101147.75;5072075;28;20020;-78
2022/10/26 04:45:08;;;;;;;6.00;3.15;;;;;;;10.89;89.59;101146.88;5070211;28;20029;-78
2022/10/26 04:47:34;;;;;;;5.13;3.05;;;;;;;10.91;89.51;101136.44;5068766;28;20437;-78
2022/10/26 04:49:59;;;;;;;6.00;3.00;;;;;;;10.93;89.73;101142.47;5065884;28;20545;-78
2022/10/26 04:52:24;;;;;;;10.65;3.20;;;;;;;10.95;89.69;101140.66;5068701;28;20032;-78
2022/10/26 04:54:49;;;;;;;6.72;2.80;;;;;;;10.96;89.84;101136.34;5067340;28;20037;-78
2022/10/26 04:57:15;;;;;;;6.47;3.22;;;;;;;10.97;89.69;101143.25;5068048;28;20021;-78
2022/10/26 04:59:40;;;;;;;7.55;3.00;;;;;;;10.97;89.57;101138.03;5069351;28;20070;-78
2022/10/26 05:02:05;;;;;;;8.60;3.10;;;;;;;10.98;89.74;101140.59;5069351;28;20537;-78
2022/10/26 05:04:30;;;;;;;7.30;3.20;;;;;;;10.99;89.74;101144.91;5069456;28;20030;-78
2022/10/26 05:06:56;;;;;;;5.22;2.92;;;;;;;11.01;89.87;101145.75;5068346;28;20036;-78
2022/10/26 05:09:21;;;;;;;5.53;2.90;;;;;;;11.02;90.04;101142.25;5073829;28;20360;-78
2022/10/26 05:11:46;;;;;;;4.97;2.85;;;;;;;11.04;90.39;101148.28;5073582;28;20049;-78
2022/10/26 05:14:12;;;;;;;6.45;2.97;;;;;;;11.07;90.11;101145.63;5072735;28;20032;-78
2022/10/26 05:16:37;;;;;;;4.78;2.75;;;;;;;11.10;90.28;101151.66;5073287;28;20059;-78
2022/10/26 05:19:02;;;;;;;5.30;2.55;;;;;;;11.12;90.25;101147.22;5074382;28;20028;-78
2022/10/26 05:21:28;;;;;;;5.13;2.58;;;;;;;11.14;90.08;101145.47;5073657;28;20494;-78
2022/10/26 05:23:54;;;;;;;5.53;2.80;;;;;;;11.16;90.40;101144.53;5080162;28;20132;-78
2022/10/26 05:26:20;;;;;;;4.47;2.75;;;;;;;11.18;90.15;101141.91;5072897;28;20028;-78
2022/10/26 05:28:45;;;;;;;8.60;2.97;;;;;;;11.19;90.22;101143.59;5073575;28;20033;-78
2022/10/26 05:31:11;;;;;;;5.38;2.97;;;;;;;11.19;90.15;101141.84;5072822;28;20028;-78
2022/10/26 05:33:36;;;;;;;4.65;2.42;;;;;;;11.23;90.27;101147.88;5073255;28;20115;-78
2022/10/26 05:36:01;;;;;;;7.00;2.92;;;;;;;11.24;90.42;101141.75;5072528;28;20036;-78
2022/10/26 05:38:27;;;;;;;5.80;2.78;;;;;;;11.26;90.20;101147.78;5073362;28;20035;-78
2022/10/26 05:40:53;;;;;;;4.10;2.45;;;;;;;11.27;90.18;101146.03;5074242;28;20029;-78
2022/10/26 05:43:20;;;;;;;4.72;2.75;;;;;;;11.27;90.20;101146.91;5073657;28;20029;-78
2022/10/26 05:45:46;;;;;;;4.80;2.50;;;;;;;11.29;90.03;101152.91;5072451;28;20043;-78
2022/10/26 05:48:11;;;;;;;4.78;2.65;;;;;;;11.30;90.13;101152.00;5073510;28;20028;-78
2022/10/26 05:50:37;;;;;;;6.15;2.55;;;;;;;11.32;90.13;101152.84;5073108;28;20028;-78
2022/10/26 05:53:02;;;;;;;4.20;2.45;;;;;;;11.32;89.99;101147.63;5073194;28;20107;-78
2022/10/26 05:55:28;;;;;;;5.10;2.28;;;;;;;11.33;90.09;101153.72;5070375;28;20033;-78
2022/10/26 05:57:53;;;;;;;5.88;2.63;;;;;;;11.34;90.25;101151.06;5073342;28;20119;-78
2022/10/26 06:00:21;;;;;;;7.10;2.28;;;;;;;11.36;90.22;101161.44;5071198;28;20109;-78
2022/10/26 06:02:55;;;;;;;4.53;2.53;;;;;;;11.36;90.15;101167.50;5069631;28;20039;-78
2022/10/26 06:05:25;;;;;;;4.80;2.33;;;;;;;11.38;90.27;101168.34;5071946;28;20031;-78
2022/10/26 06:07:50;;;;;;;5.25;2.38;;;;;;;11.40;90.22;101170.88;5067544;28;20032;-78
2022/10/26 06:10:17;;;;;;;5.45;2.42;;;;;;;11.41;90.09;101170.00;5071731;28;20055;-78
2022/10/26 06:12:43;;;;;;;8.02;2.58;;;;;;;11.42;89.97;101170.88;5072131;28;20438;-78
2022/10/26 06:15:19;;;;;;;6.25;2.45;;;;;;;11.44;90.17;101182.97;5093366;28;20108;-78
2022/10/26 06:18:04;;;;;;;4.88;2.60;;;;;;;11.47;90.28;101182.00;5072290;28;20025;-78
2022/10/26 06:21:07;;;;;;;6.40;2.70;;;;;;;11.47;90.37;101185.50;5071424;28;20125;-78
2022/10/26 06:23:45;;;;;;;5.28;2.45;;;;;;;11.48;90.09;101186.34;5072562;28;20150;-78
2022/10/26 06:26:43;;;;;;;3.53;2.15;;;;;;;11.49;90.14;101182.84;5072366;28;20036;-78
2022/10/26 06:30:01;;;;;;;8.35;2.85;;;;;;;11.51;89.90;101186.25;5056950;28;20036;-78
2022/10/26 06:32:27;;;;;;;5.18;2.90;;;;;;;11.49;89.82;101180.22;5030741;28;20039;-78
2022/10/26 06:35:17;;;;;;;4.25;2.50;;;;;;;11.49;89.82;101193.25;5067846;28;20047;-78
2022/10/26 06:37:44;;;;;;;7.53;2.58;;;;;;;11.47;89.98;101190.69;5027421;28;20040;-78
2022/10/26 06:40:13;;;;;;;4.53;2.42;;;;;;;11.46;89.70;101193.31;5069309;28;20047;-78
2022/10/26 06:42:39;;;;;;;4.78;2.38;;;;;;;11.46;89.49;101189.00;5072372;28;20040;-78
2022/10/26 06:45:05;;;;;;;5.22;2.58;;;;;;;11.44;89.43;101190.78;5072460;28;20032;-78
2022/10/26 06:47:37;;;;;;;6.53;2.63;;;;;;;11.43;89.84;101194.25;5071630;28;20047;-78
2022/10/26 06:50:24;;;;;;;6.68;2.92;;;;;;;11.41;89.79;101190.00;5077958;28;20036;-78
2022/10/26 06:53:10;;;;;;;6.40;2.50;;;;;;;11.39;89.48;101183.06;5071303;28;20043;-78
2022/10/26 06:55:41;;;;;;;5.95;2.70;;;;;;;11.38;89.33;101175.28;5068933;28;20113;-78
2022/10/26 06:58:16;;;;;;;6.23;2.83;;;;;;;11.37;89.63;101176.16;5069886;28;20395;-78
2022/10/26 07:00:44;;;;;;;8.30;2.97;;;;;;;11.37;89.57;101170.94;5070008;28;20287;-78
2022/10/26 07:03:09;;;;;;;5.43;2.70;;;;;;;11.36;89.49;101177.06;5070438;28;20382;-78
2022/10/26 07:05:34;;;;;;;4.97;2.90;;;;;;;11.36;89.52;101172.72;5070250;28;20089;-78
2022/10/26 07:07:59;;;;;;;7.32;2.50;;;;;;;11.36;89.66;101177.94;5070949;28;20032;-78
2022/10/26 07:10:25;;;;;;;4.72;2.60;;;;;;;11.37;89.27;101174.44;5070698;28;20626;-78
2022/10/26 07:12:50;;;;;;;5.60;2.78;;;;;;;11.39;89.52;101177.00;5070342;28;20181;-78
2022/10/26 07:15:15;;;;;;;7.38;2.97;;;;;;;11.39;89.60;101166.56;5071018;28;20036;-78
2022/10/26 07:17:45;;;;;;;5.85;2.75;;;;;;;11.41;89.63;101185.63;5071897;28;20031;-78
2022/10/26 07:20:11;;;;;;;5.22;2.60;;;;;;;11.42;89.95;101182.13;5070577;28;20025;-78
2022/10/26 07:22:37;;;;;;;3.60;2.60;;;;;;;11.43;90.00;101177.78;5069503;28;20051;-78
2022/10/26 07:25:03;;;;;;;5.05;2.50;;;;;;;11.45;89.95;101178.59;5071838;28;20075;-78
2022/10/26 07:27:28;;;;;;;6.25;3.00;;;;;;;11.47;90.07;101190.69;5070071;28;20063;-78
2022/10/26 07:29:53;;;;;;;6.38;2.80;;;;;;;11.50;90.29;101190.63;5070768;28;20134;-78
2022/10/26 07:32:18;;;;;;;6.10;2.63;;;;;;;11.56;90.10;101194.84;5066501;28;20016;-78
2022/10/26 07:34:44;;;;;;;4.40;2.70;;;;;;;11.61;90.09;101198.19;5064649;28;20032;-78
2022/10/26 07:37:09;;;;;;;6.05;2.40;;;;;;;11.63;90.09;101204.19;5067164;28;20043;-78
2022/10/26 07:39:34;;;;;;;7.00;2.60;;;;;;;11.67;90.39;101203.25;5070825;28;20027;-78
2022/10/26 07:41:59;;;;;;;4.50;2.38;;;;;;;11.72;90.40;101210.94;5071950;28;20039;-78
2022/10/26 07:44:25;;;;;;;7.03;2.78;;;;;;;11.77;90.09;101216.91;5071131;28;20481;-78
2022/10/26 07:46:50;;;;;;;6.25;2.78;;;;;;;11.81;90.01;101226.38;5072830;28;20025;-77
2022/10/26 07:49:16;;;;;;;5.40;2.47;;;;;;;11.87;90.28;101227.13;5064058;28;20195;-78
2022/10/26 07:51:41;;;;;;;8.00;2.63;;;;;;;11.93;90.21;101225.22;5065256;28;20031;-78
2022/10/26 07:54:06;;;;;;;5.88;2.65;;;;;;;11.98;90.26;101225.97;5068010;28;20041;-78
2022/10/26 07:56:31;;;;;;;5.75;2.67;;;;;;;12.02;90.12;101233.72;5069475;28;20056;-78
2022/10/26 07:58:57;;;;;;;4.78;2.53;;;;;;;12.05;90.15;101229.25;5071824;28;20028;-78
2022/10/26 08:01:22;;;;;;;6.38;2.65;;;;;;;12.11;90.50;101238.72;5070162;28;20021;-77
2022/10/26 08:03:52;;;;;;;4.82;2.58;;;;;;;12.20;90.41;101240.22;5068961;28;20031;-78
2022/10/26 08:06:17;;;;;;;3.80;2.63;;;;;;;12.30;90.31;101252.97;5066801;28;20033;-77
2022/10/26 08:08:42;;;;;;;4.45;2.58;;;;;;;12.41;89.92;101241.41;5070173;28;20361;-77
2022/10/26 08:11:07;;;;;;;6.93;3.00;;;;;;;12.49;89.34;101242.03;5068789;28;20052;-77
2022/10/26 08:13:34;;;;;;;6.88;2.95;;;;;;;12.57;89.55;101249.66;5071087;28;20020;-78
2022/10/26 08:16:02;;;;;;;6.05;2.40;;;;;;;12.63;89.45;101246.88;5073253;28;20052;-78
2022/10/26 08:18:28;;;;;;;4.80;2.80;;;;;;;12.68;89.32;101250.22;5071172;28;20095;-78
2022/10/26 08:20:54;;;;;;;5.00;2.65;;;;;;;12.75;88.73;101261.34;5070479;28;20495;-77
2022/10/26 08:23:19;;;;;;;6.63;2.70;;;;;;;12.81;89.53;101255.94;5076351;28;20032;-77
2022/10/26 08:25:45;;;;;;;6.05;2.88;;;;;;;12.88;89.18;101261.84;5074910;28;20164;-78
2022/10/26 08:28:10;;;;;;;4.65;2.83;;;;;;;12.94;88.73;101266.03;5079893;28;20028;-77
2022/10/26 08:30:35;;;;;;;6.20;2.90;;;;;;;13.01;88.51;101257.13;5077675;28;20440;-77
2022/10/26 08:33:05;;;;;;;4.03;2.65;;;;;;;13.09;88.62;101260.38;5083821;28;20099;-77
2022/10/26 08:35:31;;;;;;;5.38;2.80;;;;;;;13.17;89.44;101260.97;5077556;28;20097;-77
2022/10/26 08:37:56;;;;;;;5.72;2.70;;;;;;;13.27;88.64;101258.13;5075795;28;20452;-77
2022/10/26 08:40:27;;;;;;;6.20;2.53;;;;;;;13.33;88.19;101255.28;5076325;28;20036;-77
2022/10/26 08:42:59;;;;;;;7.75;2.90;;;;;;;13.40;88.45;101266.44;5075651;28;20115;-78
2022/10/26 08:45:37;;;;;;;6.15;2.70;;;;;;;13.46;88.68;101269.75;5072806;28;20028;-77
2022/10/26 08:48:10;;;;;;;5.45;2.70;;;;;;;13.50;88.02;101273.13;5081812;28;20032;-77
2022/10/26 08:50:48;;;;;;;5.75;2.75;;;;;;;13.55;87.69;101281.69;5087253;28;20020;-77
2022/10/26 08:53:16;;;;;;;4.28;2.55;;;;;;;13.61;87.59;101278.84;5087391;28;20073;-77
2022/10/26 08:55:55;;;;;;;5.85;2.88;;;;;;;13.68;87.51;101274.28;5088454;28;20134;-77
2022/10/26 08:58:28;;;;;;;4.00;2.30;;;;;;;13.74;87.44;101279.31;5088087;28;20172;-78
2022/10/26 09:00:53;;;;;;;8.77;2.95;;;;;;;13.80;87.06;101273.03;5087324;28;20019;-78
2022/10/26 09:03:19;;;;;;;5.32;2.38;;;;;;;13.87;87.16;101277.19;5086185;28;20097;-76
2022/10/26 09:06:05;;;;;;;6.72;2.50;;;;;;;13.92;87.46;101271.78;5085225;28;20051;-77
2022/10/26 09:09:03;;;;;;;6.32;2.35;;;;;;;13.99;87.55;101268.06;5083490;28;20024;-77
2022/10/26 09:11:54;;;;;;;5.18;2.10;;;;;;;14.06;87.38;101264.34;5087904;28;20051;-77
2022/10/26 09:14:44;;;;;;;5.00;2.03;;;;;;;14.13;86.83;101264.13;5080682;28;20036;-77
2022/10/26 09:17:39;;;;;;;5.63;2.20;;;;;;;14.21;87.07;101267.31;5082725;28;20115;-77
2022/10/26 09:20:26;;;;;;;6.35;2.00;;;;;;;14.26;87.10;101254.94;5087868;28;20430;-77
2022/10/26 09:23:00;;;;;;;4.82;2.30;;;;;;;14.33;86.73;101266.94;5087248;28;20026;-78
2022/10/26 09:25:36;;;;;;;4.30;1.90;;;;;;;14.40;86.22;101273.63;5084378;28;20020;-77
2022/10/26 09:28:03;;;;;;;5.18;2.38;;;;;;;14.49;85.83;101279.47;5087161;28;20039;-77
2022/10/26 09:30:29;;;;;;;5.40;2.25;;;;;;;14.56;86.43;101294.03;5086954;28;20031;-77
2022/10/26 09:33:02;;;;;;;4.57;1.85;;;;;;;14.65;86.34;101300.72;5087373;28;20019;-78
2022/10/26 09:35:40;;;;;;;5.25;1.90;;;;;;;14.71;85.82;101293.53;5085099;28;20028;-78
2022/10/26 09:38:16;;;;;;;6.25;2.20;;;;;;;14.78;85.54;101296.78;5085533;28;20039;-77
2022/10/26 09:41:01;;;;;;;5.55;2.03;;;;;;;14.89;85.92;101312.09;5086248;28;20109;-77
2022/10/26 09:43:43;;;;;;;4.10;1.75;;;;;;;14.98;85.44;101314.41;5086835;28;20566;-77
2022/10/26 09:46:17;;;;;;;4.43;1.70;;;;;;;15.07;85.01;101317.59;5085826;28;20054;-77
2022/10/26 09:49:05;;;;;;;4.72;2.15;;;;;;;15.16;85.20;101322.50;5087552;28;20570;-77
2022/10/26 09:51:37;;;;;;;3.92;1.63;;;;;;;15.22;84.27;101329.28;5087522;28;20079;-77
2022/10/26 09:54:16;;;;;;;3.42;1.55;;;;;;;15.30;84.56;101332.44;5084337;28;20089;-77
2022/10/26 09:56:46;;;;;;;3.78;1.80;;;;;;;15.38;83.95;101353.13;5083114;28;20042;-77
2022/10/26 09:59:13;;;;;;;7.47;1.70;;;;;;;15.42;84.01;101347.75;5085097;28;20078;-77
2022/10/26 10:01:38;;;;;;;3.15;1.65;;;;;;;15.45;82.15;101338.88;5085610;28;20023;-77
2022/10/26 10:04:12;;;;;;;4.32;1.70;;;;;;;15.47;82.77;101351.00;5085751;28;20361;-77
2022/10/26 10:06:41;;;;;;;6.05;1.83;;;;;;;15.51;83.04;101351.78;5085827;28;20040;-77
2022/10/26 10:09:16;;;;;;;6.10;2.03;;;;;;;15.53;83.16;101344.72;5087223;28;20020;-77
2022/10/26 10:11:55;;;;;;;4.75;2.00;;;;;;;15.57;82.32;101348.91;5086754;28;20127;-77
2022/10/26 10:14:32;;;;;;;6.35;1.75;;;;;;;15.61;83.20;101352.28;5086113;28;20471;-77
2022/10/26 10:17:00;;;;;;;5.55;1.75;;;;;;;15.65;82.69;101359.09;5085157;28;20371;-78
2022/10/26 10:19:30;;;;;;;7.25;1.75;;;;;;;15.69;82.12;101365.09;5085796;28;20028;-77
2022/10/26 10:21:59;;;;;;;5.05;1.73;;;;;;;15.75;82.67;101370.06;5084620;28;20032;-77
2022/10/26 10:24:29;;;;;;;6.10;1.73;;;;;;;15.80;82.88;101376.00;5084616;28;20024;-77
2022/10/26 10:27:16;;;;;;;5.28;1.80;;;;;;;15.84;82.44;101380.22;5086114;28;20030;-77
2022/10/26 10:29:42;;;;;;;3.55;1.80;;;;;;;15.89;81.64;101383.53;5083827;28;20027;-77
2022/10/26 10:32:14;;;;;;;4.47;1.83;;;;;;;15.95;81.82;101386.84;5084197;28;20125;-78
2022/10/26 10:34:40;;;;;;;7.47;2.00;;;;;;;15.99;81.75;101393.69;5082169;28;20066;-77
2022/10/26 10:37:05;;;;;;;5.95;1.70;;;;;;;16.02;81.43;101398.81;5083077;28;20024;-77
2022/10/26 10:39:37;;;;;;;7.03;2.03;;;;;;;16.04;81.61;101402.25;5086775;28;20038;-78
2022/10/26 10:42:22;;;;;;;4.60;1.80;;;;;;;16.08;82.25;101406.44;5084508;28;20032;-78
2022/10/26 10:44:51;;;;;;;5.60;1.90;;;;;;;16.12;81.61;101410.66;5086109;28;20143;-77
2022/10/26 10:47:23;;;;;;;8.80;2.05;;;;;;;16.14;81.00;101414.06;5084720;28;20103;-77
2022/10/26 10:49:54;;;;;;;4.65;1.75;;;;;;;16.19;81.01;101409.50;5083322;28;20028;-77
2022/10/26 10:52:31;;;;;;;5.32;1.88;;;;;;;16.24;81.07;101417.19;5085014;28;20035;-77
2022/10/26 10:55:12;;;;;;;3.70;1.75;;;;;;;16.30;80.99;101423.94;5084920;28;20024;-78
2022/10/26 10:58:26;;;;;;;4.85;1.80;;;;;;;16.33;81.65;101419.41;5085613;28;20032;-78
2022/10/26 11:00:53;;;;;;;5.05;1.90;;;;;;;16.35;80.25;101424.63;5042484;28;20071;-77
2022/10/26 11:03:38;;;;;;;4.88;1.75;;;;;;;16.39;81.20;101423.59;5039896;28;20039;-77
2022/10/26 11:06:17;;;;;;;6.35;1.85;;;;;;;16.42;81.52;101428.69;5064190;28;20499;-78
2022/10/26 11:08:53;;;;;;;5.40;1.80;;;;;;;16.47;81.03;101418.88;5079696;28;20089;-78
2022/10/26 11:11:31;;;;;;;4.43;1.50;;;;;;;16.55;81.13;101423.78;5079995;28;20142;-78
2022/10/26 11:14:18;;;;;;;6.28;1.80;;;;;;;16.60;80.49;101434.09;5083581;28;20111;-78
2022/10/26 11:16:48;;;;;;;5.05;1.70;;;;;;;16.66;80.44;101436.47;5084819;28;20039;-76
2022/10/26 11:19:24;;;;;;;6.00;1.83;;;;;;;16.74;80.27;101449.31;5087813;28;20024;-77
2022/10/26 11:21:53;;;;;;;3.50;1.80;;;;;;;16.79;79.77;101445.56;5081694;28;20443;-79
2022/10/26 11:24:29;;;;;;;3.35;1.70;;;;;;;16.89;79.12;101442.56;5086627;28;20028;-78
2022/10/26 11:27:02;;;;;;;4.55;1.98;;;;;;;16.92;78.47;101445.03;5083339;28;20060;-77
2022/10/26 11:29:48;;;;;;;4.03;1.80;;;;;;;16.93;78.55;101452.88;5080268;28;20090;-77
2022/10/26 11:32:29;;;;;;;3.75;1.88;;;;;;;17.01;80.59;101451.69;5077332;28;20744;-77
2022/10/26 11:35:04;;;;;;;4.70;1.60;;;;;;;17.06;78.94;101447.97;5078850;28;20035;-77
2022/10/26 11:37:53;;;;;;;3.25;1.70;;;;;;;17.11;79.29;101458.28;5075615;28;20031;-78
2022/10/26 11:40:29;;;;;;;4.28;1.65;;;;;;;17.18;78.02;101474.63;5078136;28;20374;-78